createdAt,value
2019-04-19T00:00:56.054Z,3.43
2019-04-19T00:03:30.369Z,3.10
2019-04-19T00:06:25.178Z,3.73
2019-04-19T00:09:09.131Z,2.40
2019-04-19T00:11:33.469Z,6.33
2019-04-19T00:13:56.014Z,4.10
2019-04-19T00:16:27.695Z,3.27
2019-04-19T00:19:20.034Z,6.90
2019-04-19T00:21:54.418Z,3.70
2019-04-19T00:24:01.839Z,4.43
2019-04-19T00:26:32.286Z,5.30
2019-04-19T00:29:07.035Z,3.60
2019-04-19T00:31:47.229Z,4.80
2019-04-19T00:34:08.245Z,3.20
2019-04-19T00:36:38.793Z,3.77
2019-04-19T00:39:42.584Z,3.40
2019-04-19T00:42:25.821Z,5.33
2019-04-19T00:45:10.498Z,3.07
2019-04-19T00:47:41.422Z,3.70
2019-04-19T00:50:04.773Z,3.07
2019-04-19T00:52:47.697Z,4.00
2019-04-19T00:55:04.714Z,3.23
2019-04-19T00:57:36.741Z,3.33
2019-04-19T01:00:00.271Z,3.50
2019-04-19T01:02:36.407Z,4.47
2019-04-19T01:05:07.498Z,4.80
2019-04-19T01:08:00.053Z,3.30
2019-04-19T01:10:42.842Z,5.30
2019-04-19T01:13:10.849Z,3.80
2019-04-19T01:15:47.536Z,4.20
2019-04-19T01:18:21.395Z,4.53
2019-04-19T01:20:37.400Z,3.83
2019-04-19T01:23:12.233Z,5.60
2019-04-19T01:25:39.898Z,4.33
2019-04-19T01:28:15.964Z,3.83
2019-04-19T01:30:44.420Z,3.50
2019-04-19T01:33:23.946Z,3.70
2019-04-19T01:35:51.549Z,4.10
2019-04-19T01:38:21.160Z,5.07
2019-04-19T01:41:09.678Z,3.97
2019-04-19T01:43:43.927Z,4.30
2019-04-19T01:46:49.111Z,6.37
2019-04-19T01:49:21.330Z,4.77
2019-04-19T01:52:09.851Z,4.27
2019-04-19T01:54:35.791Z,4.10
2019-04-19T01:56:58.277Z,4.57
2019-04-19T01:59:33.117Z,3.60
2019-04-19T02:02:01.740Z,3.40
2019-04-19T02:04:31.965Z,3.87
2019-04-19T02:07:05.146Z,5.80
2019-04-19T02:09:50.817Z,3.93
2019-04-19T02:12:22.416Z,3.83
2019-04-19T02:14:48.219Z,3.33
2019-04-19T02:17:14.464Z,3.63
2019-04-19T02:19:51.244Z,4.63
2019-04-19T02:22:22.276Z,4.30
2019-04-19T02:24:50.956Z,4.23
2019-04-19T02:27:20.394Z,4.37
2019-04-19T02:29:56.584Z,3.90
2019-04-19T02:32:47.115Z,3.80
2019-04-19T02:35:15.387Z,4.40
2019-04-19T02:37:58.311Z,4.60
2019-04-19T02:43:21.134Z,3.80
2019-04-19T02:45:55.180Z,8.10
2019-04-19T02:48:13.282Z,4.17
2019-04-19T02:53:08.789Z,5.67
2019-04-19T02:55:41.321Z,4.40
2019-04-19T02:58:12.688Z,4.33
2019-04-19T03:01:19.049Z,7.67
2019-04-19T03:03:39.529Z,3.85
2019-04-19T03:06:12.638Z,7.75
2019-04-19T03:08:23.245Z,4.50
2019-04-19T03:11:06.118Z,4.42
2019-04-19T03:13:40.247Z,3.93
2019-04-19T03:16:21.724Z,4.40
2019-04-19T03:18:50.304Z,5.17
2019-04-19T03:21:20.535Z,4.47
2019-04-19T03:23:50.915Z,5.65
2019-04-19T03:26:23.186Z,7.67
2019-04-19T03:28:44.658Z,5.28
2019-04-19T03:31:41.225Z,5.20
2019-04-19T03:34:11.802Z,5.75
2019-04-19T03:36:31.034Z,4.72
2019-04-19T03:39:11.870Z,8.48
2019-04-19T03:44:42.930Z,4.40
2019-04-19T03:47:16.295Z,5.33
2019-04-19T03:49:44.965Z,6.50
2019-04-19T03:52:22.634Z,4.10
2019-04-19T03:54:48.698Z,4.40
2019-04-19T03:57:18.589Z,4.60
2019-04-19T03:59:37.281Z,4.25
2019-04-19T04:02:07.862Z,4.15
2019-04-19T04:04:38.840Z,4.65
2019-04-19T04:07:15.449Z,4.87
2019-04-19T04:10:02.879Z,5.60
2019-04-19T04:12:49.554Z,5.33
2019-04-19T04:15:48.225Z,6.00
2019-04-19T04:18:04.853Z,6.70
2019-04-19T04:20:41.572Z,5.58
2019-04-19T04:23:13.292Z,4.70
2019-04-19T04:25:48.428Z,5.47
2019-04-19T04:28:28.951Z,4.62
2019-04-19T04:30:55.993Z,4.67
2019-04-19T04:33:31.092Z,5.10
2019-04-19T04:36:09.666Z,8.25
2019-04-19T04:38:27.332Z,5.90
2019-04-19T04:40:52.851Z,5.22
2019-04-19T04:43:36.992Z,6.47
2019-04-19T04:46:30.729Z,5.40
2019-04-19T04:49:07.197Z,6.95
2019-04-19T04:51:39.327Z,7.85
2019-04-19T04:53:57.510Z,4.55
2019-04-19T04:56:43.580Z,4.58
2019-04-19T04:59:09.945Z,5.17
2019-04-19T05:01:47.565Z,5.80
2019-04-19T05:04:23.986Z,5.08
2019-04-19T05:06:57.781Z,7.58
2019-04-19T05:09:32.684Z,4.85
2019-04-19T05:12:09.103Z,4.62
2019-04-19T05:14:32.474Z,4.50
2019-04-19T05:17:24.435Z,7.53
2019-04-19T05:19:48.995Z,7.10
2019-04-19T05:22:12.790Z,4.97
2019-04-19T05:24:52.926Z,6.62
2019-04-19T05:27:22.204Z,4.85
2019-04-19T05:29:36.594Z,5.80
2019-04-19T05:32:10.128Z,4.22
2019-04-19T05:34:52.467Z,5.67
2019-04-19T05:37:25.117Z,5.70
2019-04-19T05:40:13.927Z,4.72
2019-04-19T05:42:52.408Z,5.85
2019-04-19T05:45:40.472Z,5.87
2019-04-19T05:47:59.039Z,5.70
2019-04-19T05:50:36.259Z,5.60
2019-04-19T05:53:04.050Z,6.65
2019-04-19T05:55:23.947Z,6.10
2019-04-19T05:58:10.076Z,8.35
2019-04-19T06:00:43.669Z,7.60
2019-04-19T06:03:10.397Z,7.30
2019-04-19T06:05:59.931Z,7.42
2019-04-19T06:08:12.179Z,7.25
2019-04-19T06:10:43.382Z,4.85
2019-04-19T06:13:11.817Z,7.95
2019-04-19T06:16:02.525Z,6.33
2019-04-19T06:18:32.076Z,5.17
2019-04-19T06:21:18.460Z,6.43
2019-04-19T06:23:52.522Z,6.30
2019-04-19T06:26:49.276Z,6.00
2019-04-19T06:28:59.807Z,7.33
2019-04-19T06:33:53.722Z,5.37
2019-04-19T06:36:08.895Z,5.53
2019-04-19T06:38:37.949Z,5.40
2019-04-19T06:41:13.674Z,6.10
2019-04-19T06:43:53.597Z,6.80
2019-04-19T06:46:24.791Z,5.83
2019-04-19T06:48:55.234Z,6.90
2019-04-19T06:51:26.478Z,8.40
2019-04-19T06:53:55.556Z,5.77
2019-04-19T06:56:28.643Z,5.77
2019-04-19T06:59:04.716Z,6.57
2019-04-19T07:01:35.344Z,5.73
2019-04-19T07:03:57.927Z,7.27
2019-04-19T07:06:42.842Z,5.30
2019-04-19T07:09:26.837Z,5.27
2019-04-19T07:11:55.156Z,4.17
2019-04-19T07:14:12.175Z,4.67
2019-04-19T07:16:57.325Z,4.00
2019-04-19T07:19:30.796Z,4.07
2019-04-19T07:21:55.628Z,4.40
2019-04-19T07:24:40.534Z,3.87
2019-04-19T07:27:04.433Z,4.33
2019-04-19T07:29:18.732Z,5.07
2019-04-19T07:31:49.402Z,5.20
2019-04-19T07:34:39.557Z,4.40
2019-04-19T07:37:09.174Z,3.97
2019-04-19T07:39:48.248Z,4.10
2019-04-19T07:42:19.438Z,4.17
2019-04-19T07:44:48.069Z,3.70
2019-04-19T07:47:27.683Z,4.57
2019-04-19T07:49:57.529Z,3.90
2019-04-19T07:52:23.306Z,4.40
2019-04-19T07:54:55.383Z,4.73
2019-04-19T08:00:28.833Z,4.90
2019-04-19T08:02:59.981Z,4.77
2019-04-19T08:05:43.061Z,4.40
2019-04-19T08:08:06.793Z,4.47
2019-04-19T08:10:29.494Z,6.60
2019-04-19T08:13:09.994Z,4.03
2019-04-19T08:15:42.758Z,4.27
2019-04-19T08:17:58.881Z,6.57
2019-04-19T08:28:03.116Z,4.57
2019-04-19T08:30:32.420Z,5.10
2019-04-19T08:32:53.626Z,4.60
2019-04-19T08:35:24.221Z,4.70
2019-04-19T08:38:01.440Z,4.67
2019-04-19T08:40:44.072Z,5.03
2019-04-19T08:43:17.326Z,5.33
2019-04-19T08:46:05.199Z,5.83
2019-04-19T08:48:59.400Z,5.67
2019-04-19T08:51:48.852Z,8.03
2019-04-19T08:54:41.130Z,4.30
2019-04-19T08:57:01.165Z,4.53
2019-04-19T08:59:59.232Z,4.43
2019-04-19T09:02:16.806Z,5.33
2019-04-19T09:04:43.906Z,4.53
2019-04-19T09:10:02.929Z,5.87
2019-04-19T09:12:21.104Z,6.43
2019-04-19T09:14:56.863Z,5.83
2019-04-19T09:17:33.186Z,5.30
2019-04-19T09:20:14.922Z,5.90
2019-04-19T09:22:34.269Z,5.40
2019-04-19T09:24:56.084Z,6.83
2019-04-19T09:27:47.397Z,5.70
2019-04-19T09:30:12.502Z,6.00
2019-04-19T09:32:26.440Z,7.73
2019-04-19T09:34:57.513Z,6.50
2019-04-19T09:37:42.801Z,6.50
2019-04-19T09:40:06.546Z,7.10
2019-04-19T09:42:42.287Z,6.47
2019-04-19T09:45:03.722Z,5.50
2019-04-19T09:47:34.368Z,6.33
2019-04-19T09:50:16.076Z,5.23
2019-04-19T09:53:00.306Z,7.00
2019-04-19T09:55:34.670Z,5.53
2019-04-19T09:58:00.592Z,8.67
2019-04-19T10:00:20.917Z,5.70
2019-04-19T10:02:53.558Z,5.40
2019-04-19T10:05:20.970Z,5.67
2019-04-19T10:07:52.641Z,6.33
2019-04-19T10:10:23.218Z,6.77
2019-04-19T10:12:53.876Z,7.90
2019-04-19T10:15:46.723Z,9.07
2019-04-19T10:18:17.191Z,6.23
2019-04-19T10:21:11.801Z,6.63
2019-04-19T10:23:38.148Z,6.60
2019-04-19T10:26:15.836Z,6.07
2019-04-19T10:28:46.356Z,7.07
2019-04-19T10:31:21.826Z,6.10
2019-04-19T10:33:57.830Z,8.73
2019-04-19T10:36:24.562Z,7.57
2019-04-19T10:38:57.663Z,5.93
2019-04-19T10:41:27.511Z,6.60
2019-04-19T10:44:03.730Z,7.30
2019-04-19T10:46:31.018Z,6.60
2019-04-19T10:49:10.082Z,5.97
2019-04-19T10:51:39.719Z,8.03
2019-04-19T10:54:10.721Z,6.40
2019-04-19T10:56:54.500Z,7.20
2019-04-19T10:59:24.901Z,6.57
2019-04-19T11:01:55.592Z,6.00
2019-04-19T11:04:26.913Z,5.90
2019-04-19T11:06:59.737Z,5.43
2019-04-19T11:09:31.150Z,6.00
2019-04-19T11:12:01.808Z,5.10
2019-04-19T11:14:32.378Z,6.70
2019-04-19T11:17:02.752Z,5.30
2019-04-19T11:19:51.832Z,6.60
2019-04-19T11:22:05.731Z,7.23
2019-04-19T11:24:36.264Z,5.70
2019-04-19T11:27:06.836Z,6.30
2019-04-19T11:29:38.514Z,6.17
2019-04-19T11:32:28.191Z,7.70
2019-04-19T11:34:58.930Z,6.20
2019-04-19T11:37:29.689Z,6.57
2019-04-19T11:40:01.356Z,6.00
2019-04-19T11:42:32.852Z,6.03
2019-04-19T11:45:03.824Z,6.83
2019-04-19T11:47:35.307Z,8.40
2019-04-19T11:50:07.698Z,6.13
2019-04-19T11:52:46.102Z,6.40
2019-04-19T11:55:18.236Z,7.43
2019-04-19T11:57:54.517Z,6.60
2019-04-19T12:00:54.142Z,6.30
2019-04-19T12:03:27.965Z,7.03
2019-04-19T12:05:58.427Z,6.23
2019-04-19T12:08:28.927Z,5.93
2019-04-19T12:11:00.016Z,6.63
2019-04-19T12:13:34.662Z,6.50
2019-04-19T12:16:03.178Z,6.40
2019-04-19T12:18:34.800Z,6.60
2019-04-19T12:21:07.089Z,4.53
2019-04-19T12:23:38.946Z,4.73
2019-04-19T12:26:09.550Z,6.50
2019-04-19T12:28:40.084Z,5.60
2019-04-19T12:31:11.549Z,4.50
2019-04-19T12:33:42.113Z,4.37
2019-04-19T12:36:12.846Z,5.60
2019-04-19T12:38:44.049Z,5.00
2019-04-19T12:41:14.544Z,4.27
2019-04-19T12:43:45.923Z,6.00
2019-04-19T12:46:16.955Z,5.20
2019-04-19T12:48:48.216Z,6.03
2019-04-19T12:51:19.483Z,6.27
2019-04-19T12:53:51.247Z,6.13
2019-04-19T12:56:22.457Z,6.10
2019-04-19T12:58:53.835Z,4.90
2019-04-19T13:01:30.021Z,4.80
2019-04-19T13:04:08.705Z,4.77
2019-04-19T13:06:40.151Z,6.00
2019-04-19T13:09:11.450Z,6.33
2019-04-19T13:11:42.959Z,5.57
2019-04-19T13:14:13.659Z,4.83
2019-04-19T13:16:44.175Z,5.00
2019-04-19T13:19:14.615Z,6.33
2019-04-19T13:21:45.005Z,5.33
2019-04-19T13:24:16.249Z,5.50
2019-04-19T13:26:47.419Z,5.90
2019-04-19T13:29:19.604Z,5.20
2019-04-19T13:31:50.183Z,21.03
2019-04-19T13:34:20.971Z,5.47
2019-04-19T13:37:27.207Z,13.07
2019-04-19T13:40:06.125Z,4.20
2019-04-19T13:42:37.349Z,8.50
2019-04-19T13:45:18.186Z,5.17
2019-04-19T13:47:42.775Z,5.30
2019-04-19T13:50:23.525Z,4.83
2019-04-19T13:52:46.744Z,4.67
2019-04-19T13:55:18.887Z,4.17
2019-04-19T13:57:49.568Z,3.90
2019-04-19T14:00:24.572Z,4.63
2019-04-19T14:02:55.664Z,3.70
2019-04-19T14:05:26.233Z,3.73
2019-04-19T14:07:57.145Z,3.80
2019-04-19T14:10:27.656Z,3.73
2019-04-19T14:12:59.099Z,3.23
2019-04-19T14:15:30.930Z,3.63
2019-04-19T14:18:02.288Z,3.60
2019-04-19T14:20:40.341Z,2.97
2019-04-19T14:23:05.711Z,3.00
2019-04-19T14:25:37.154Z,3.73
2019-04-19T14:28:07.654Z,3.20
2019-04-19T14:30:39.524Z,3.30
2019-04-19T14:33:10.032Z,2.93
2019-04-19T14:35:41.804Z,3.00
2019-04-19T14:38:13.791Z,3.17
2019-04-19T14:40:44.393Z,3.43
2019-04-19T14:43:16.348Z,3.90
2019-04-19T14:45:47.109Z,3.30
2019-04-19T14:48:24.604Z,3.80
2019-04-19T14:50:58.851Z,3.27
2019-04-19T14:53:22.388Z,3.17
2019-04-19T14:55:53.042Z,4.50
2019-04-19T14:58:23.396Z,2.77
2019-04-19T15:01:17.088Z,3.10
2019-04-19T15:03:50.669Z,3.50
2019-04-19T15:06:23.795Z,3.27
2019-04-19T15:08:54.297Z,3.10
2019-04-19T15:11:25.538Z,3.80
2019-04-19T15:13:57.441Z,3.30
2019-04-19T15:16:28.666Z,4.70
2019-04-19T15:19:00.146Z,2.77
2019-04-19T15:21:30.694Z,3.80
2019-04-19T15:24:01.097Z,3.27
2019-04-19T15:26:31.503Z,2.87
2019-04-19T15:29:03.005Z,3.60
2019-04-19T15:31:34.434Z,2.97
2019-04-19T15:34:06.055Z,3.20
2019-04-19T15:36:37.676Z,3.07
2019-04-19T15:39:11.181Z,3.17
2019-04-19T15:41:42.197Z,2.93
2019-04-19T15:44:12.805Z,4.10
2019-04-19T15:46:43.989Z,3.70
2019-04-19T15:49:15.586Z,4.13
2019-04-19T15:51:46.174Z,3.87
2019-04-19T15:54:16.598Z,2.90
2019-04-19T15:56:47.920Z,3.63
2019-04-19T15:59:19.228Z,3.47
2019-04-19T16:02:22.090Z,2.60
2019-04-19T16:05:10.581Z,3.90
2019-04-19T16:07:55.841Z,6.70
2019-04-19T16:10:36.958Z,3.80
2019-04-19T16:13:07.738Z,3.60
2019-04-19T16:15:38.270Z,3.13
2019-04-19T16:18:08.678Z,2.10
2019-04-19T16:20:44.009Z,3.03
2019-04-19T16:23:14.153Z,3.50
2019-04-19T16:25:47.143Z,3.33
2019-04-19T16:28:17.125Z,2.80
2019-04-19T16:30:48.551Z,3.00
2019-04-19T16:33:20.486Z,2.70
2019-04-19T16:35:52.239Z,3.03
2019-04-19T16:38:24.116Z,2.73
2019-04-19T16:40:54.974Z,2.93
2019-04-19T16:43:25.777Z,3.37
2019-04-19T16:46:09.271Z,2.23
2019-04-19T16:48:28.517Z,2.50
2019-04-19T16:50:58.918Z,2.13
2019-04-19T16:53:29.349Z,2.73
2019-04-19T16:55:59.777Z,2.10
2019-04-19T16:58:30.748Z,2.30
2019-04-19T17:01:01.202Z,2.50
2019-04-19T17:03:31.841Z,2.43
2019-04-19T17:06:02.541Z,4.13
2019-04-19T17:08:34.398Z,3.33
2019-04-19T17:11:05.793Z,4.33
2019-04-19T17:13:36.497Z,2.83
2019-04-19T17:16:25.832Z,3.10
2019-04-19T17:19:11.013Z,2.23
2019-04-19T17:21:50.727Z,2.07
2019-04-19T17:24:13.502Z,2.60
2019-04-19T17:26:44.825Z,2.33
2019-04-19T17:29:15.321Z,2.60
2019-04-19T17:31:47.929Z,4.93
2019-04-19T17:34:18.524Z,2.47
2019-04-19T17:36:48.889Z,2.93
2019-04-19T17:39:20.379Z,2.30
2019-04-19T17:41:51.041Z,4.40
2019-04-19T17:44:21.792Z,2.00
2019-04-19T17:46:52.216Z,3.13
2019-04-19T17:49:22.615Z,3.20
2019-04-19T17:52:03.320Z,2.90
2019-04-19T17:54:43.217Z,2.80
2019-04-19T17:56:57.441Z,2.90
2019-04-19T17:59:28.021Z,2.90
2019-04-19T18:01:59.080Z,2.27
2019-04-19T18:04:30.292Z,3.30
2019-04-19T18:07:03.040Z,2.70
2019-04-19T18:09:33.156Z,3.00
2019-04-19T18:12:03.725Z,3.10
2019-04-19T18:14:34.118Z,2.90
2019-04-19T18:17:04.618Z,2.37
2019-04-19T18:19:38.173Z,2.50
2019-04-19T18:22:14.039Z,3.43
2019-04-19T18:24:47.789Z,2.77
2019-04-19T18:27:17.019Z,2.30
2019-04-19T18:29:44.199Z,2.83
2019-04-19T18:32:21.093Z,2.10
2019-04-19T18:34:51.871Z,3.63
2019-04-19T18:37:27.581Z,2.20
2019-04-19T18:39:56.225Z,1.80
2019-04-19T18:42:28.046Z,1.80
2019-04-19T18:45:01.611Z,2.37
2019-04-19T18:47:30.705Z,1.83
2019-04-19T18:50:01.560Z,2.00
2019-04-19T18:52:43.690Z,2.10
2019-04-19T18:55:08.811Z,2.43
2019-04-19T18:57:38.265Z,2.67
2019-04-19T19:00:12.452Z,1.60
2019-04-19T19:02:46.173Z,1.83
2019-04-19T19:05:16.639Z,2.13
2019-04-19T19:07:49.415Z,2.43
2019-04-19T19:10:23.277Z,2.33
2019-04-19T19:12:51.561Z,1.70
2019-04-19T19:15:24.204Z,1.80
2019-04-19T19:17:56.452Z,2.27
2019-04-19T19:20:36.558Z,2.50
2019-04-19T19:23:19.292Z,2.03
2019-04-19T19:25:48.141Z,2.60
2019-04-19T19:28:14.165Z,3.60
2019-04-19T19:30:46.976Z,2.70
2019-04-19T19:33:20.526Z,2.20
2019-04-19T19:35:55.026Z,2.53
2019-04-19T19:38:26.224Z,2.30
2019-04-19T19:41:04.222Z,2.80
2019-04-19T19:43:39.561Z,2.30
2019-04-19T19:46:21.552Z,2.70
2019-04-19T19:49:07.995Z,2.03
2019-04-19T19:51:17.856Z,1.80
2019-04-19T19:54:12.835Z,2.37
2019-04-19T19:58:44.564Z,2.43
2019-04-19T20:01:24.464Z,1.90
2019-04-19T20:03:48.452Z,3.33
2019-04-19T20:06:20.266Z,4.77
2019-04-19T20:08:49.728Z,2.43
2019-04-19T20:11:26.031Z,3.63
2019-04-19T20:13:56.460Z,2.50
2019-04-19T20:16:27.602Z,2.60
2019-04-19T20:19:02.080Z,2.30
2019-04-19T20:21:32.523Z,2.30
2019-04-19T20:24:14.158Z,4.10
2019-04-19T20:26:45.792Z,3.07
2019-04-19T20:29:16.500Z,2.50
2019-04-19T20:31:41.323Z,2.23
2019-04-19T20:34:14.843Z,2.10
2019-04-19T20:36:45.808Z,2.80
2019-04-19T20:39:17.946Z,2.43
2019-04-19T20:41:51.889Z,1.70
2019-04-19T20:44:41.769Z,3.37
2019-04-19T20:46:52.453Z,2.53
2019-04-19T20:49:23.455Z,2.60
2019-04-19T20:52:05.262Z,1.93
2019-04-19T20:54:52.759Z,3.10
2019-04-19T20:57:35.099Z,3.00
2019-04-19T20:59:55.766Z,1.77
2019-04-19T21:02:30.010Z,2.93
2019-04-19T21:05:00.657Z,2.77
2019-04-19T21:07:31.555Z,1.80
2019-04-19T21:10:04.028Z,2.27
2019-04-19T21:12:34.575Z,1.90
2019-04-19T21:15:13.874Z,2.37
2019-04-19T21:17:41.503Z,5.87
2019-04-19T21:20:12.743Z,2.10
2019-04-19T21:22:42.114Z,2.80
2019-04-19T21:25:19.123Z,1.77
2019-04-19T21:27:50.404Z,2.00
2019-04-19T21:30:18.693Z,1.97
2019-04-19T21:32:50.044Z,1.93
2019-04-19T21:35:20.950Z,2.40
2019-04-19T21:37:52.574Z,2.20
2019-04-19T21:40:30.889Z,2.57
2019-04-19T21:42:58.370Z,3.37
2019-04-19T21:45:34.945Z,1.83
2019-04-19T21:47:59.714Z,1.97
2019-04-19T21:50:37.438Z,2.10
2019-04-19T21:53:07.608Z,1.80
2019-04-19T21:55:40.349Z,1.90
2019-04-19T21:58:11.966Z,2.23
2019-04-19T22:01:01.325Z,2.00
2019-04-19T22:03:30.700Z,2.10
2019-04-19T22:06:11.015Z,1.70
2019-04-19T22:08:36.990Z,1.83
2019-04-19T22:11:06.607Z,2.00
2019-04-19T22:13:41.167Z,2.00
2019-04-19T22:16:10.471Z,1.70
2019-04-19T22:18:45.743Z,2.40
2019-04-19T22:21:14.573Z,1.83
2019-04-19T22:23:49.234Z,1.87
2019-04-19T22:26:25.015Z,2.27
2019-04-19T22:28:49.757Z,1.70
2019-04-19T22:31:23.354Z,2.07
2019-04-19T22:33:52.492Z,2.17
2019-04-19T22:36:23.614Z,4.63
2019-04-19T22:38:58.528Z,3.60
2019-04-19T22:41:27.118Z,5.00
2019-04-19T22:43:58.706Z,3.17
2019-04-19T22:46:34.189Z,3.10
2019-04-19T22:49:06.755Z,2.77
2019-04-19T22:51:35.296Z,3.57
2019-04-19T22:54:08.257Z,3.20
2019-04-19T22:56:52.517Z,3.13
2019-04-19T22:59:16.624Z,3.30
2019-04-19T23:02:04.830Z,3.20
2019-04-19T23:04:33.332Z,5.60
2019-04-19T23:07:07.515Z,7.97
2019-04-19T23:09:36.878Z,6.70
2019-04-19T23:12:07.448Z,4.63
2019-04-19T23:14:52.062Z,5.33
2019-04-19T23:17:28.381Z,3.70
2019-04-19T23:19:55.541Z,5.40
2019-04-19T23:22:31.373Z,4.73
2019-04-19T23:25:02.548Z,3.40
2019-04-19T23:27:40.530Z,4.43
2019-04-19T23:30:21.484Z,7.80
2019-04-19T23:32:50.298Z,3.50
2019-04-19T23:35:28.596Z,3.40
2019-04-19T23:37:53.635Z,6.67
2019-04-19T23:40:29.973Z,4.07
2019-04-19T23:42:58.034Z,4.17
2019-04-19T23:45:35.103Z,2.93
2019-04-19T23:48:00.569Z,4.13
2019-04-19T23:50:35.304Z,3.30
2019-04-19T23:53:05.528Z,5.13
2019-04-19T23:55:36.190Z,4.77
2019-04-19T23:58:08.047Z,4.47
